Blacoveschenka, Kazakhstan
Current Conditions -  °F | °C
As of 4:00 PM on Saturday 25 Oct 2014 (Local Time) from UACP Reporting Station
Snow Showers Snow Showers  
Wind Chill:   Ceiling: 2300
Heat Index: 16°   Visibility: 6mi
Dew Point: 12°   Wind: 11mph
Humidity: 86%   Direction: 270°W
Pressure: 29.83"   Gusts: NA
Location:  54.37°N, 66.97°E
Report Text: UACP 251000Z 27005MPS 9999 -SHSN SCT015 BKN023CBOVC100 M09/M11 Q1010 R23/4/3037 NOSIG RMK QFE745/0993
Loading
Personal Weather Stations






























Interactive Weather Map
Tropical Storm Tracking
New forecast layout! Learn more

10-Day Weather Forecast

Advertisements
Track Severe Weather on mobile